Time;durP1;ratioP1;P1;durP2;ratioP2;P2;SDS_P1;SDS_P2;PMS_P1;PMS_P2;Temp;Humidity;BMP_temperature;BMP_pressure;BME280_temperature;BME280_humidity;BME280_pressure;Samples;Min_cycle;Max_cycle;Signal;HPM_P1;HPM_P2
2021/10/29 00:01:32;;;;;;;44.20;24.00;;;;;;;6.41;65.04;99716.20;113449;1192;96452;-71
2021/10/29 00:04:00;;;;;;;43.20;22.20;;;;;;;6.42;65.25;99717.90;114330;1192;107532;-71
2021/10/29 00:06:29;;;;;;;41.10;22.80;;;;;;;6.40;65.40;99716.75;113525;1192;97675;-71
2021/10/29 00:08:57;;;;;;;43.10;23.40;;;;;;;6.38;65.46;99715.58;113662;1193;97602;-71
2021/10/29 00:11:25;;;;;;;45.50;24.40;;;;;;;6.34;65.33;99718.62;113384;1192;111406;-70
2021/10/29 00:13:54;;;;;;;47.00;26.10;;;;;;;6.31;65.62;99714.15;113541;1193;95728;-70
2021/10/29 00:16:22;;;;;;;41.50;21.90;;;;;;;6.29;65.46;99709.71;113617;1192;107535;-71
2021/10/29 00:18:49;;;;;;;42.30;23.60;;;;;;;6.28;65.67;99710.08;113395;1193;96879;-71
2021/10/29 00:21:17;;;;;;;41.50;23.20;;;;;;;6.28;65.54;99713.27;113671;1192;97573;-72
2021/10/29 00:23:45;;;;;;;46.40;25.60;;;;;;;6.27;65.49;99708.36;113656;1193;111162;-72
2021/10/29 00:26:14;;;;;;;45.70;23.50;;;;;;;6.26;65.51;99702.93;113714;1192;95145;-75
2021/10/29 00:28:42;;;;;;;43.70;23.00;;;;;;;6.27;65.69;99699.58;113681;1192;107516;-73
2021/10/29 00:31:10;;;;;;;38.10;21.90;;;;;;;6.26;65.87;99699.59;113665;1192;97612;-72
2021/10/29 00:33:38;;;;;;;44.10;23.40;;;;;;;6.24;65.99;99698.25;113522;1193;97558;-73
2021/10/29 00:36:06;;;;;;;50.00;25.80;;;;;;;6.22;65.88;99693.25;113629;1192;111125;-72
2021/10/29 00:38:34;;;;;;;42.80;23.00;;;;;;;6.19;66.00;99690.05;113507;1192;97621;-71
2021/10/29 00:41:02;;;;;;;41.40;22.70;;;;;;;6.18;65.83;99693.43;113516;1193;107528;-71
2021/10/29 00:43:30;;;;;;;41.40;22.80;;;;;;;6.16;66.02;99686.27;113523;1193;95398;-72
2021/10/29 00:45:58;;;;;;;44.20;23.60;;;;;;;6.14;66.09;99693.79;113677;1192;97630;-72
2021/10/29 00:48:26;;;;;;;39.00;20.60;;;;;;;6.11;66.06;99689.66;113638;1192;111177;-71
2021/10/29 00:50:54;;;;;;;42.70;22.10;;;;;;;6.09;66.27;99689.06;113682;1193;97494;-72
2021/10/29 00:53:24;;;;;;;39.60;23.00;;;;;;;6.05;66.33;99686.94;113638;1192;108729;-71
2021/10/29 00:55:55;;;;;;;44.10;23.30;;;;;;;6.00;66.43;99685.56;113631;1192;97540;-72
2021/10/29 00:58:24;;;;;;;41.70;23.30;;;;;;;5.93;66.50;99685.34;113692;1193;97553;-72
2021/10/29 01:00:53;;;;;;;44.50;24.40;;;;;;;5.88;66.52;99680.81;113659;1192;112248;-70
2021/10/29 01:03:22;;;;;;;41.50;21.20;;;;;;;5.84;66.42;99679.38;113611;1193;97610;-72
2021/10/29 01:05:51;;;;;;;42.40;22.00;;;;;;;5.80;66.48;99679.34;113679;1193;107414;-71
2021/10/29 01:08:19;;;;;;;44.60;23.80;;;;;;;5.78;66.31;99678.59;113834;1193;97573;-71
2021/10/29 01:10:49;;;;;;;39.80;22.10;;;;;;;5.76;66.28;99676.02;113828;1193;97571;-71
2021/10/29 01:13:19;;;;;;;43.80;22.70;;;;;;;5.76;66.15;99673.73;113795;1193;111166;-71
2021/10/29 01:15:47;;;;;;;41.20;22.30;;;;;;;5.76;66.02;99670.73;113645;1193;97499;-72
2021/10/29 01:18:15;;;;;;;39.70;20.40;;;;;;;5.76;66.02;99666.67;113825;1193;107508;-71
2021/10/29 01:20:43;;;;;;;41.20;22.70;;;;;;;5.74;65.87;99662.19;113814;1193;95985;-70
2021/10/29 01:23:11;;;;;;;40.50;21.20;;;;;;;5.74;65.82;99663.61;113836;1193;97664;-71
2021/10/29 01:25:40;;;;;;;42.40;20.80;;;;;;;5.76;65.80;99660.88;113858;1193;111145;-72
2021/10/29 01:28:13;;;;;;;40.20;20.90;;;;;;;5.79;65.61;99660.07;113856;1192;97635;-72
2021/10/29 01:30:41;;;;;;;37.60;19.10;;;;;;;5.81;65.57;99658.01;113868;1193;107498;-72
2021/10/29 01:33:10;;;;;;;37.40;19.90;;;;;;;5.82;65.56;99655.34;113815;1193;97569;-71
2021/10/29 01:35:38;;;;;;;37.40;19.40;;;;;;;5.83;65.55;99653.05;113876;1192;97582;-71
2021/10/29 01:38:07;;;;;;;36.40;20.30;;;;;;;5.85;65.39;99653.66;113787;1193;110996;-71
2021/10/29 01:40:35;;;;;;;38.10;19.20;;;;;;;5.86;65.37;99644.63;113781;1192;97578;-71
2021/10/29 01:43:03;;;;;;;36.80;18.80;;;;;;;5.87;65.46;99637.17;113737;1192;107335;-73
2021/10/29 01:45:34;;;;;;;35.30;19.20;;;;;;;5.90;65.44;99634.23;113774;1192;95042;-71
2021/10/29 01:48:02;;;;;;;37.80;19.40;;;;;;;5.92;65.44;99631.30;113866;1192;97648;-72
2021/10/29 01:50:31;;;;;;;34.90;17.80;;;;;;;5.94;65.37;99631.06;113816;1192;111195;-71
2021/10/29 01:52:59;;;;;;;33.60;17.40;;;;;;;5.95;65.32;99630.14;113846;1192;97615;-72
2021/10/29 01:55:27;;;;;;;34.60;17.60;;;;;;;5.97;65.32;99626.69;113613;1193;105872;-73
2021/10/29 01:57:56;;;;;;;34.30;16.90;;;;;;;6.00;65.36;99623.80;113838;1193;97609;-72
2021/10/29 02:00:25;;;;;;;33.80;18.20;;;;;;;6.03;65.32;99624.20;113795;1192;97625;-72
2021/10/29 02:02:56;;;;;;;32.50;16.40;;;;;;;6.04;65.44;99620.25;113701;1193;111026;-72
2021/10/29 02:05:25;;;;;;;32.40;17.60;;;;;;;6.07;65.37;99621.73;113613;1192;97572;-73
2021/10/29 02:07:54;;;;;;;30.70;16.50;;;;;;;6.08;65.17;99612.86;113547;1193;107596;-72
2021/10/29 02:10:22;;;;;;;35.00;16.70;;;;;;;6.10;65.31;99610.86;113532;1192;97695;-72
2021/10/29 02:12:50;;;;;;;31.30;15.60;;;;;;;6.10;65.19;99609.27;113632;1193;97606;-73
2021/10/29 02:15:19;;;;;;;29.20;14.30;;;;;;;6.12;65.20;99603.71;113558;1192;111195;-73
2021/10/29 02:17:47;;;;;;;30.40;15.30;;;;;;;6.13;65.19;99602.08;113566;1193;97654;-70
2021/10/29 02:20:14;;;;;;;32.40;15.80;;;;;;;6.15;65.11;99599.55;114123;1192;107555;-72
2021/10/29 02:22:42;;;;;;;29.60;14.50;;;;;;;6.16;65.06;99600.70;113419;1194;97656;-71
2021/10/29 02:25:10;;;;;;;31.40;15.20;;;;;;;6.18;65.12;99599.55;113623;1193;97538;-72
2021/10/29 02:27:38;;;;;;;28.20;13.00;;;;;;;6.19;65.02;99594.95;113492;1193;111166;-72
2021/10/29 02:30:07;;;;;;;32.30;14.20;;;;;;;6.20;65.11;99595.61;113441;1193;95050;-72
2021/10/29 02:32:35;;;;;;;29.30;13.30;;;;;;;6.21;64.99;99594.33;113576;1193;108308;-72
2021/10/29 02:35:03;;;;;;;28.00;14.30;;;;;;;6.21;65.12;99586.89;113624;1193;95097;-73
2021/10/29 02:37:33;;;;;;;26.90;13.40;;;;;;;6.22;65.17;99589.16;113651;1193;97581;-71
2021/10/29 02:40:01;;;;;;;26.60;13.20;;;;;;;6.21;65.33;99588.33;113625;1193;111250;-72
2021/10/29 02:42:29;;;;;;;27.20;13.00;;;;;;;6.20;65.15;99587.87;113648;1193;97535;-72
2021/10/29 02:44:57;;;;;;;24.70;12.30;;;;;;;6.18;65.26;99586.52;113606;1193;107497;-69
2021/10/29 02:47:24;;;;;;;27.10;13.10;;;;;;;6.15;65.22;99584.55;113419;1193;97704;-70
2021/10/29 02:49:52;;;;;;;27.70;13.90;;;;;;;6.13;65.24;99587.48;113608;1193;97588;-71
2021/10/29 02:52:20;;;;;;;27.00;13.20;;;;;;;6.09;65.27;99580.25;113468;1193;111125;-70
2021/10/29 02:54:49;;;;;;;27.90;14.80;;;;;;;6.07;65.37;99577.00;113649;1193;97560;-70
2021/10/29 02:57:18;;;;;;;28.40;14.00;;;;;;;6.04;65.37;99576.60;113432;1193;105525;-70
2021/10/29 02:59:46;;;;;;;27.60;13.30;;;;;;;6.01;65.45;99573.03;113585;1193;97640;-70
2021/10/29 03:02:15;;;;;;;28.00;14.00;;;;;;;5.99;65.62;99568.34;113618;1193;97658;-70
2021/10/29 03:04:45;;;;;;;26.90;13.20;;;;;;;5.96;65.60;99569.36;113465;1193;111191;-70
2021/10/29 03:07:14;;;;;;;24.00;12.20;;;;;;;5.94;65.56;99566.25;113867;1193;95180;-70
2021/10/29 03:09:42;;;;;;;26.40;12.90;;;;;;;5.92;65.61;99567.73;113533;1193;106639;-70
2021/10/29 03:12:10;;;;;;;26.10;13.40;;;;;;;5.92;65.76;99565.13;113416;1193;97631;-72
2021/10/29 03:14:37;;;;;;;27.20;12.40;;;;;;;5.93;65.63;99566.69;113865;1192;96908;-72
2021/10/29 03:17:05;;;;;;;24.40;12.40;;;;;;;5.93;65.61;99568.23;113874;1193;110956;-70
2021/10/29 03:19:33;;;;;;;25.50;12.10;;;;;;;5.94;65.75;99564.34;113822;1193;97501;-71
2021/10/29 03:22:01;;;;;;;25.10;11.40;;;;;;;5.95;65.69;99565.34;113847;1192;108481;-71
2021/10/29 03:24:29;;;;;;;23.00;10.60;;;;;;;5.96;65.62;99564.61;113856;1192;97518;-70
2021/10/29 03:26:56;;;;;;;24.00;11.60;;;;;;;5.98;65.65;99566.65;113892;1192;97649;-70
2021/10/29 03:29:25;;;;;;;25.30;11.10;;;;;;;5.99;65.62;99566.24;113892;1193;112136;-70
2021/10/29 03:31:53;;;;;;;25.10;11.40;;;;;;;6.00;65.62;99566.02;113895;1192;94933;-69
2021/10/29 03:34:21;;;;;;;26.60;11.50;;;;;;;6.02;65.64;99566.84;113761;1193;107535;-70
2021/10/29 03:36:49;;;;;;;23.60;10.40;;;;;;;6.03;65.65;99562.04;113853;1193;97654;-73
2021/10/29 03:39:24;;;;;;;24.90;11.50;;;;;;;6.04;65.62;99563.21;113790;1193;95093;-71
2021/10/29 03:41:59;;;;;;;24.40;11.10;;;;;;;6.06;65.58;99565.23;113794;1193;111184;-71
2021/10/29 03:44:49;;;;;;;23.60;10.60;;;;;;;6.08;65.77;99566.38;113441;1193;95144;-72
2021/10/29 03:47:18;;;;;;;23.40;10.30;;;;;;;6.09;65.56;99565.46;113820;1193;107522;-72
2021/10/29 03:49:52;;;;;;;22.60;10.60;;;;;;;6.09;65.61;99565.47;113727;1192;97591;-72
2021/10/29 03:52:31;;;;;;;22.00;10.00;;;;;;;6.09;65.57;99566.85;113866;1192;97596;-72
2021/10/29 03:55:06;;;;;;;23.00;10.00;;;;;;;6.09;65.54;99568.79;113940;1192;111152;-71
2021/10/29 03:57:34;;;;;;;23.00;10.00;;;;;;;6.09;65.62;99567.39;113960;1193;97550;-72
2021/10/29 04:00:04;;;;;;;20.70;8.70;;;;;;;6.10;65.61;99571.24;113918;1193;106651;-72
2021/10/29 04:02:31;;;;;;;24.70;10.50;;;;;;;6.10;65.66;99573.85;113958;1193;97528;-71
2021/10/29 04:05:00;;;;;;;22.90;10.30;;;;;;;6.11;65.86;99569.20;113894;1192;95142;-70
2021/10/29 04:07:28;;;;;;;26.30;11.00;;;;;;;6.13;65.70;99568.27;113902;1192;110927;-70
2021/10/29 04:09:56;;;;;;;22.10;10.60;;;;;;;6.15;65.68;99570.09;113914;1193;97627;-72
2021/10/29 04:12:25;;;;;;;22.00;10.40;;;;;;;6.16;65.60;99567.09;113878;1193;107419;-69
2021/10/29 04:14:58;;;;;;;22.40;10.80;;;;;;;6.17;65.48;99565.63;113490;1193;98720;-71
2021/10/29 04:17:27;;;;;;;21.80;9.70;;;;;;;6.17;65.55;99563.67;113904;1193;95396;-70
2021/10/29 04:19:55;;;;;;;24.40;10.10;;;;;;;6.17;65.62;99560.15;113848;1193;111364;-70
2021/10/29 04:22:22;;;;;;;23.00;10.90;;;;;;;6.18;65.52;99563.63;113831;1193;97617;-71
2021/10/29 04:24:50;;;;;;;22.10;10.30;;;;;;;6.20;65.45;99564.63;113499;1193;107182;-70
2021/10/29 04:27:21;;;;;;;23.90;10.90;;;;;;;6.21;65.34;99564.19;113470;1193;97580;-71
2021/10/29 04:29:52;;;;;;;21.70;11.00;;;;;;;6.21;65.46;99561.90;113547;1193;97615;-69
2021/10/29 04:32:21;;;;;;;26.00;11.40;;;;;;;6.23;65.43;99559.52;113518;1193;111133;-69
2021/10/29 04:34:49;;;;;;;23.20;10.60;;;;;;;6.24;65.37;99559.15;113511;1193;94959;-69
2021/10/29 04:37:19;;;;;;;25.50;10.40;;;;;;;6.24;65.33;99559.65;113568;1193;107481;-72
2021/10/29 04:39:48;;;;;;;23.00;10.20;;;;;;;6.23;65.40;99553.70;113373;1193;97679;-74
2021/10/29 04:42:17;;;;;;;24.60;10.80;;;;;;;6.22;65.28;99553.74;113460;1193;96490;-72
2021/10/29 04:44:45;;;;;;;26.40;11.80;;;;;;;6.21;65.29;99549.77;113487;1193;111167;-72
2021/10/29 04:47:14;;;;;;;21.40;10.50;;;;;;;6.20;65.29;99548.92;113492;1193;97623;-73
2021/10/29 04:49:42;;;;;;;27.60;12.20;;;;;;;6.20;65.41;99546.30;113421;1193;105721;-74
2021/10/29 04:52:10;;;;;;;36.40;21.00;;;;;;;6.19;65.20;99551.28;113517;1193;97641;-73
2021/10/29 04:54:37;;;;;;;43.80;26.80;;;;;;;6.12;64.97;99549.30;113632;1193;97736;-72
2021/10/29 04:57:05;;;;;;;46.80;27.60;;;;;;;5.94;64.87;99549.59;113551;1193;111183;-71
2021/10/29 04:59:35;;;;;;;70.90;39.50;;;;;;;5.80;64.89;99548.44;113404;1193;97744;-70
2021/10/29 05:02:03;;;;;;;92.80;49.60;;;;;;;5.69;64.68;99553.33;113580;1193;108978;-69
2021/10/29 05:04:31;;;;;;;73.00;39.30;;;;;;;5.57;64.75;99550.17;114051;1193;97622;-70
2021/10/29 05:06:59;;;;;;;83.70;46.70;;;;;;;5.49;64.86;99547.54;113829;1192;97646;-71
2021/10/29 05:09:27;;;;;;;292.10;158.90;;;;;;;5.45;64.90;99546.63;113539;1193;111165;-70
2021/10/29 05:11:55;;;;;;;122.80;62.20;;;;;;;5.44;65.02;99546.86;113595;1192;97571;-71
2021/10/29 05:14:23;;;;;;;112.50;57.90;;;;;;;5.42;65.00;99547.14;113630;1193;107593;-70
2021/10/29 05:16:51;;;;;;;110.30;62.80;;;;;;;5.39;64.92;99545.30;113479;1193;97608;-69
2021/10/29 05:19:19;;;;;;;113.10;62.40;;;;;;;5.36;64.93;99546.30;113565;1192;97544;-70
2021/10/29 05:21:47;;;;;;;106.70;61.80;;;;;;;5.32;64.85;99545.09;113668;1192;111017;-69
2021/10/29 05:24:17;;;;;;;97.80;56.70;;;;;;;5.27;64.88;99551.65;113829;1192;97612;-70
2021/10/29 05:26:46;;;;;;;108.40;59.40;;;;;;;5.21;64.80;99554.87;113441;1193;109507;-71
2021/10/29 05:29:14;;;;;;;100.20;58.10;;;;;;;5.17;64.90;99557.84;113602;1193;96100;-70
2021/10/29 05:31:42;;;;;;;103.10;58.30;;;;;;;5.12;64.88;99554.00;113865;1193;95829;-71
2021/10/29 05:34:11;;;;;;;102.50;57.10;;;;;;;5.07;64.86;99557.21;113805;1193;111160;-70
2021/10/29 05:36:40;;;;;;;109.90;57.40;;;;;;;5.02;64.84;99556.20;113778;1192;95109;-67
2021/10/29 05:39:09;;;;;;;110.30;59.40;;;;;;;4.95;64.76;99558.61;113389;1193;107502;-70
2021/10/29 05:41:40;;;;;;;94.30;54.90;;;;;;;4.89;64.85;99557.80;113723;1192;97712;-70
2021/10/29 05:44:08;;;;;;;103.90;56.00;;;;;;;4.85;64.83;99559.35;113757;1193;95719;-69
2021/10/29 05:46:41;;;;;;;105.40;58.00;;;;;;;4.81;64.82;99561.80;113722;1192;111259;-69
2021/10/29 05:49:13;;;;;;;124.90;70.30;;;;;;;4.77;64.71;99561.44;113874;1192;96165;-71
2021/10/29 05:51:45;;;;;;;105.50;59.30;;;;;;;4.73;64.78;99567.05;113497;1193;107574;-70
2021/10/29 05:56:48;;;;;;;99.60;56.90;;;;;;;4.67;64.71;99568.71;113444;1193;97546;-73
2021/10/29 05:59:16;;;;;;;93.60;54.70;;;;;;;4.60;64.68;99571.57;113603;1193;111154;-71
2021/10/29 06:01:44;;;;;;;100.10;57.90;;;;;;;4.58;64.74;99573.63;113849;1192;97569;-71
2021/10/29 06:04:13;;;;;;;99.20;58.60;;;;;;;4.57;64.77;99574.71;113793;1193;107480;-70
2021/10/29 06:06:41;;;;;;;107.80;59.10;;;;;;;4.56;64.77;99572.63;113849;1192;97663;-70
2021/10/29 06:09:09;;;;;;;98.40;55.10;;;;;;;4.54;64.76;99574.31;113846;1192;97543;-71
2021/10/29 06:11:38;;;;;;;88.60;50.40;;;;;;;4.54;64.73;99575.71;113829;1193;111121;-70
2021/10/29 06:14:06;;;;;;;61.50;33.10;;;;;;;4.55;64.65;99573.73;113425;1193;97647;-70
2021/10/29 06:16:34;;;;;;;46.50;25.30;;;;;;;4.61;65.00;99572.10;113671;1192;107671;-67
2021/10/29 06:19:04;;;;;;;42.60;19.60;;;;;;;4.78;65.05;99568.05;113691;1193;97615;-68
2021/10/29 06:21:50;;;;;;;34.60;16.40;;;;;;;5.06;65.34;99569.58;113473;1193;96446;-67
2021/10/29 06:24:18;;;;;;;32.70;14.60;;;;;;;5.42;65.57;99568.41;113407;1192;111787;-68
2021/10/29 06:29:18;;;;;;;32.10;13.30;;;;;;;6.02;65.76;99566.27;113621;1193;109266;-67
2021/10/29 06:31:47;;;;;;;30.10;13.70;;;;;;;6.27;65.64;99565.14;113619;1193;97673;-67
2021/10/29 06:34:17;;;;;;;32.60;14.60;;;;;;;6.47;65.68;99562.48;113585;1192;98758;-68
2021/10/29 06:36:47;;;;;;;33.30;14.50;;;;;;;6.63;65.75;99563.84;113443;1193;110850;-68
2021/10/29 06:39:19;;;;;;;29.90;13.90;;;;;;;6.76;65.57;99564.27;113420;1193;97554;-70
2021/10/29 06:41:51;;;;;;;31.00;14.00;;;;;;;6.92;65.60;99562.61;113435;1192;107539;-69
2021/10/29 07:11:33;;;;;;;26.30;11.20;;;;;;;8.12;65.33;99569.14;113836;1193;95972;-73
2021/10/29 07:41:25;;;;;;;24.90;9.80;;;;;;;9.86;61.41;99575.59;113874;1193;97644;-71
2021/10/29 07:43:59;;;;;;;21.30;9.70;;;;;;;9.94;61.01;99575.81;113494;1192;111163;-70
2021/10/29 07:46:30;;;;;;;22.20;9.30;;;;;;;10.03;60.94;99574.34;113745;1192;96081;-69
2021/10/29 07:48:59;;;;;;;24.10;10.10;;;;;;;10.11;60.32;99575.09;113775;1192;108074;-69
2021/10/29 07:51:28;;;;;;;23.70;9.80;;;;;;;10.22;60.26;99575.34;113783;1193;97580;-71
2021/10/29 07:53:58;;;;;;;22.00;9.40;;;;;;;10.32;60.44;99574.67;113815;1193;97614;-69
2021/10/29 07:56:26;;;;;;;21.20;9.30;;;;;;;10.42;59.90;99576.73;113728;1193;111768;-70
2021/10/29 07:59:16;;;;;;;23.40;9.70;;;;;;;10.56;59.76;99574.09;113749;1192;97667;-72
2021/10/29 08:01:48;;;;;;;21.90;9.10;;;;;;;10.66;59.29;99568.68;113553;1192;107916;-72
2021/10/29 08:04:21;;;;;;;22.60;9.70;;;;;;;10.77;59.21;99567.58;113769;1192;97542;-70
2021/10/29 08:06:51;;;;;;;19.90;8.70;;;;;;;10.89;59.78;99568.92;113357;1193;97649;-72
2021/10/29 08:09:24;;;;;;;23.70;9.30;;;;;;;10.98;59.24;99572.20;113096;1193;111146;-70
2021/10/29 08:11:55;;;;;;;23.30;10.20;;;;;;;11.12;58.79;99571.38;113553;1192;97569;-70
2021/10/29 08:14:24;;;;;;;22.70;9.30;;;;;;;11.26;58.79;99572.38;113761;1193;106654;-70
2021/10/29 08:16:54;;;;;;;20.40;9.00;;;;;;;11.40;58.55;99571.97;113545;1192;95743;-70
2021/10/29 08:19:32;;;;;;;22.30;9.60;;;;;;;11.53;57.66;99572.14;113678;1192;97537;-71
2021/10/29 08:22:05;;;;;;;22.10;9.30;;;;;;;11.71;57.30;99568.23;113679;1192;110238;-70
2021/10/29 08:24:37;;;;;;;22.90;8.40;;;;;;;11.90;56.54;99570.30;113439;1192;95013;-70
2021/10/29 08:27:09;;;;;;;20.00;8.60;;;;;;;12.10;56.78;99569.48;113771;1192;107462;-71
2021/10/29 08:29:39;;;;;;;18.90;8.30;;;;;;;12.31;56.38;99566.58;113363;1192;95792;-70
2021/10/29 08:32:09;;;;;;;21.80;8.80;;;;;;;12.58;56.84;99570.52;113397;1193;97683;-71
2021/10/29 08:34:37;;;;;;;20.50;8.80;;;;;;;12.87;56.46;99573.20;113356;1193;111153;-70
2021/10/29 08:37:08;;;;;;;19.60;8.00;;;;;;;13.17;54.84;99570.61;113668;1192;97550;-70
2021/10/29 08:39:38;;;;;;;20.40;8.10;;;;;;;13.55;54.24;99570.79;113684;1192;107543;-71
2021/10/29 08:42:11;;;;;;;19.10;7.80;;;;;;;13.93;53.52;99569.97;113307;1193;97565;-71
2021/10/29 08:44:38;;;;;;;19.90;7.70;;;;;;;14.30;53.31;99567.42;113533;1193;97649;-71
2021/10/29 08:47:09;;;;;;;20.50;7.90;;;;;;;14.59;50.90;99566.01;113499;1193;111221;-71
2021/10/29 08:49:37;;;;;;;19.20;8.00;;;;;;;14.88;50.84;99557.42;113460;1192;98254;-70
2021/10/29 08:52:10;;;;;;;22.90;8.80;;;;;;;15.29;51.84;99566.19;113398;1193;107625;-70
2021/10/29 08:54:39;;;;;;;23.10;8.40;;;;;;;15.80;50.89;99562.81;113432;1193;97633;-69
2021/10/29 08:57:07;;;;;;;18.80;7.90;;;;;;;16.11;49.70;99564.25;113530;1193;95093;-70
2021/10/29 08:59:40;;;;;;;21.70;9.20;;;;;;;16.36;49.52;99554.67;113779;1192;111183;-70
2021/10/29 09:02:14;;;;;;;20.20;8.10;;;;;;;16.60;48.38;99560.94;113480;1193;97666;-71
2021/10/29 09:07:37;;;;;;;17.10;7.60;;;;;;;17.42;47.57;99562.91;113679;1192;97550;-72
2021/10/29 09:33:04;;;;;;;22.00;9.30;;;;;;;18.61;41.19;99559.13;113664;1193;107655;-70
2021/10/29 09:35:38;;;;;;;18.30;8.00;;;;;;;18.48;39.51;99559.96;113729;1193;97672;-70
2021/10/29 09:38:06;;;;;;;18.70;8.00;;;;;;;18.31;39.65;99559.86;113703;1193;98352;-70
2021/10/29 09:40:39;;;;;;;21.40;8.30;;;;;;;18.31;39.98;99560.39;113319;1193;111241;-71
2021/10/29 09:43:15;;;;;;;;;;;;;;;18.38;39.55;99562.24;113761;1192;98109;-71
2021/10/29 09:45:56;;;;;;;19.70;8.60;;;;;;;18.36;39.21;99564.23;113406;1193;107479;-70
2021/10/29 09:51:08;;;;;;;19.00;8.10;;;;;;;18.33;38.39;99559.09;113775;1192;97714;-82
2021/10/29 09:53:47;;;;;;;19.40;8.50;;;;;;;18.33;39.79;99558.21;113346;1193;111221;-81
2021/10/29 09:56:43;;;;;;;22.30;9.70;;;;;;;18.47;40.45;99555.82;113264;1192;95783;-79
2021/10/29 09:59:09;;;;;;;22.50;10.00;;;;;;;18.64;39.56;99553.64;113442;1192;107511;-77
2021/10/29 10:01:39;;;;;;;21.60;8.90;;;;;;;18.67;39.75;99552.20;113677;1192;97556;-75
2021/10/29 10:04:09;;;;;;;20.60;9.00;;;;;;;18.78;39.81;99550.21;113747;1192;97559;-74
2021/10/29 10:06:43;;;;;;;22.00;9.20;;;;;;;18.89;39.65;99547.77;113402;1192;111208;-75
2021/10/29 10:09:19;;;;;;;21.30;8.40;;;;;;;18.97;39.89;99545.46;113628;1192;97662;-73
2021/10/29 10:11:49;;;;;;;23.80;8.60;;;;;;;19.08;39.97;99545.67;113404;1192;107585;-71
2021/10/29 10:14:20;;;;;;;19.20;7.80;;;;;;;19.22;40.21;99545.15;113601;1193;98434;-73
2021/10/29 10:16:49;;;;;;;20.10;7.90;;;;;;;19.32;39.55;99539.45;113337;1193;97603;-76
2021/10/29 10:19:20;;;;;;;17.20;7.30;;;;;;;19.38;39.44;99542.70;113478;1192;112105;-72
2021/10/29 10:21:53;;;;;;;18.90;7.60;;;;;;;19.39;39.16;99535.35;113819;1192;98809;-71
2021/10/29 10:24:31;;;;;;;17.30;8.00;;;;;;;19.47;39.86;99534.59;113736;1193;107519;-73
2021/10/29 10:29:59;;;;;;;21.10;8.70;;;;;;;19.72;38.58;99526.27;113655;1192;97716;-78
2021/10/29 10:44:18;;;;;;;20.00;9.20;;;;;;;20.31;37.89;99514.92;113696;1192;96023;-74
2021/10/29 10:46:27;;;;;;;20.90;9.20;;;;;;;20.29;36.93;99514.00;113405;1192;111150;-79
2021/10/29 10:49:07;;;;;;;21.80;10.30;;;;;;;20.17;35.76;99516.70;113600;1192;97509;-75
2021/10/29 10:54:39;;;;;;;28.60;12.50;;;;;;;20.33;37.68;99510.75;113446;1192;95199;-79
2021/10/29 11:11:01;;;;;;;20.10;8.20;;;;;;;20.20;33.37;99504.75;113695;1192;98258;-77
2021/10/29 11:13:41;;;;;;;17.70;7.60;;;;;;;20.24;34.83;99503.02;113701;1193;112692;-75
2021/10/29 11:16:17;;;;;;;17.40;8.20;;;;;;;20.43;34.46;99497.42;113747;1193;97615;-74
2021/10/29 11:19:12;;;;;;;19.30;7.20;;;;;;;20.51;33.80;99496.55;113803;1192;107691;-76
2021/10/29 11:21:52;;;;;;;18.30;7.20;;;;;;;20.47;33.52;99498.39;113616;1192;95045;-77
2021/10/29 11:24:43;;;;;;;18.50;7.30;;;;;;;20.29;32.94;99494.59;113552;1192;97667;-76
2021/10/29 11:27:20;;;;;;;18.70;7.20;;;;;;;20.07;33.60;99493.53;113453;1192;111204;-72
2021/10/29 11:29:55;;;;;;;19.30;9.10;;;;;;;20.02;33.92;99486.11;113737;1193;96030;-71
2021/10/29 11:32:26;;;;;;;19.50;8.60;;;;;;;19.99;33.75;99484.23;113789;1192;107520;-69
2021/10/29 11:35:02;;;;;;;17.30;6.90;;;;;;;19.94;34.25;99486.23;113802;1193;97627;-73
2021/10/29 11:37:37;;;;;;;18.60;7.90;;;;;;;19.93;34.25;99484.13;113710;1192;96458;-74
2021/10/29 11:40:12;;;;;;;20.30;8.90;;;;;;;19.87;33.31;99485.61;113489;1192;110617;-73
2021/10/29 11:42:39;;;;;;;19.10;7.60;;;;;;;19.71;32.37;99478.80;113769;1192;97618;-71
2021/10/29 11:45:07;;;;;;;18.50;8.00;;;;;;;19.57;31.98;99478.02;113468;1192;107560;-71
2021/10/29 11:47:38;;;;;;;22.20;9.00;;;;;;;19.52;32.70;99475.27;113571;1192;98231;-72
2021/10/29 11:50:12;;;;;;;23.90;9.60;;;;;;;19.56;32.67;99471.82;113686;1192;95045;-69
2021/10/29 11:52:44;;;;;;;22.00;9.70;;;;;;;19.54;31.94;99478.14;113429;1193;111123;-72
2021/10/29 11:55:33;;;;;;;18.70;8.10;;;;;;;19.53;32.62;99474.09;113263;1192;97654;-70
2021/10/29 11:58:12;;;;;;;20.30;7.90;;;;;;;19.59;33.02;99472.90;113641;1193;107204;-73
2021/10/29 12:07:13;;;;;;;19.50;7.90;;;;;;;19.64;31.39;99469.89;113533;1193;111117;-70
2021/10/29 12:09:31;;;;;;;24.00;11.20;;;;;;;19.54;31.75;99465.46;113852;1193;95848;-73
2021/10/29 12:12:10;;;;;;;27.10;11.30;;;;;;;19.53;31.94;99464.52;113473;1193;107873;-71
2021/10/29 12:14:45;;;;;;;23.30;9.80;;;;;;;19.55;31.65;99466.52;113740;1192;97644;-72
2021/10/29 12:17:23;;;;;;;19.80;8.20;;;;;;;19.55;31.61;99467.87;113511;1192;97528;-72
2021/10/29 12:20:19;;;;;;;17.30;7.10;;;;;;;19.59;31.84;99470.88;113730;1193;111319;-72
2021/10/29 12:22:50;;;;;;;21.60;8.90;;;;;;;19.57;31.24;99471.17;113741;1192;97664;-73
2021/10/29 12:28:03;;;;;;;19.60;8.30;;;;;;;19.48;31.60;99466.98;113557;1193;96173;-71
2021/10/29 12:30:45;;;;;;;18.90;8.00;;;;;;;19.51;31.34;99464.53;113685;1192;97656;-72
2021/10/29 12:39:18;;;;;;;17.80;7.70;;;;;;;19.55;31.09;99456.58;113765;1193;107364;-71
2021/10/29 12:59:17;;;;;;;17.60;6.60;;;;;;;19.53;30.41;99449.95;113761;1193;97659;-74
2021/10/29 13:01:56;;;;;;;22.00;7.80;;;;;;;19.47;30.47;99445.36;113349;1192;111331;-73
2021/10/29 13:04:44;;;;;;;19.20;7.80;;;;;;;19.43;30.32;99440.55;113781;1193;97624;-72
2021/10/29 13:07:12;;;;;;;18.80;7.10;;;;;;;19.40;30.18;99441.03;113512;1192;106074;-73
2021/10/29 13:09:43;;;;;;;16.30;6.50;;;;;;;19.36;30.12;99440.38;113844;1192;97531;-72
2021/10/29 13:14:50;;;;;;;15.80;6.30;;;;;;;19.31;30.32;99439.06;113414;1193;111156;-72
2021/10/29 13:17:29;;;;;;;19.40;6.70;;;;;;;19.30;30.22;99440.64;113458;1193;98421;-73
2021/10/29 13:50:55;;;;;;;21.70;8.60;;;;;;;19.25;31.17;99425.99;113411;1192;95736;-72
2021/10/29 13:53:25;;;;;;;19.90;8.30;;;;;;;19.25;31.10;99418.13;113690;1193;97713;-72
2021/10/29 13:56:11;;;;;;;18.90;7.20;;;;;;;19.23;31.19;99413.02;113681;1177;111140;-73
2021/10/29 14:28:07;;;;;;;16.80;6.70;;;;;;;18.74;31.67;99395.41;113606;1193;111233;-69
2021/10/29 14:35:43;;;;;;;17.70;7.30;;;;;;;18.61;32.09;99401.40;113420;1192;99187;-72
2021/10/29 14:41:01;;;;;;;20.80;8.50;;;;;;;18.65;32.31;99402.48;113631;1192;96109;-72
2021/10/29 14:44:23;;;;;;;21.10;8.00;;;;;;;18.66;32.28;99404.89;113613;1193;107967;-72
2021/10/29 14:46:37;;;;;;;24.20;9.60;;;;;;;18.63;32.45;99402.80;113462;1192;97823;-71
2021/10/29 15:41:08;;;;;;;133.20;62.30;;;;;;;16.54;33.26;99412.09;113669;1192;107643;-72
2021/10/29 15:44:15;;;;;;;83.80;42.10;;;;;;;16.34;33.44;99415.23;113629;1193;95743;-72
2021/10/29 15:51:51;;;;;;;56.40;28.20;;;;;;;16.17;33.58;99414.64;113572;1192;107523;-72
2021/10/29 15:54:22;;;;;;;84.60;40.70;;;;;;;16.12;33.70;99416.41;113444;1192;96159;-72
2021/10/29 15:56:57;;;;;;;79.90;39.30;;;;;;;16.03;33.74;99422.33;113306;1193;96918;-72
2021/10/29 16:18:39;;;;;;;51.10;25.00;;;;;;;15.47;34.30;99417.25;113558;1192;107516;-71
2021/10/29 16:21:07;;;;;;;51.30;24.10;;;;;;;15.42;34.38;99419.27;113610;1192;97556;-71
2021/10/29 16:23:35;;;;;;;38.70;19.10;;;;;;;15.39;34.39;99417.80;113260;1193;96222;-71
2021/10/29 16:26:08;;;;;;;38.30;19.10;;;;;;;15.35;34.51;99420.58;113689;1192;111087;-71
2021/10/29 16:28:40;;;;;;;48.50;22.30;;;;;;;15.30;34.57;99421.17;113748;1192;95616;-73
2021/10/29 16:31:22;;;;;;;55.80;27.90;;;;;;;15.23;34.62;99417.88;113733;1186;107673;-72